sensor_id;sensor_type;location;lat;lon;timestamp;temperature;humidity
37844;DHT22;23930;57.632;18.292;2022-09-09T00:04:52;9.90;99.90
37844;DHT22;23930;57.632;18.292;2022-09-09T00:15:14;9.90;99.90
37844;DHT22;23930;57.632;18.292;2022-09-09T00:20:39;9.90;99.90
37844;DHT22;23930;57.632;18.292;2022-09-09T00:23:27;10.00;99.90
37844;DHT22;23930;57.632;18.292;2022-09-09T00:26:20;10.00;99.90
37844;DHT22;23930;57.632;18.292;2022-09-09T00:28:55;10.00;99.90
37844;DHT22;23930;57.632;18.292;2022-09-09T00:31:28;10.00;99.90
37844;DHT22;23930;57.632;18.292;2022-09-09T00:34:02;10.00;99.90
37844;DHT22;23930;57.632;18.292;2022-09-09T00:36:32;9.90;99.90
37844;DHT22;23930;57.632;18.292;2022-09-09T00:39:02;10.00;99.90
37844;DHT22;23930;57.632;18.292;2022-09-09T00:42:03;10.00;99.90
37844;DHT22;23930;57.632;18.292;2022-09-09T00:44:37;10.00;99.90
37844;DHT22;23930;57.632;18.292;2022-09-09T00:52:43;10.00;99.90
37844;DHT22;23930;57.632;18.292;2022-09-09T00:55:25;10.00;99.90
37844;DHT22;23930;57.632;18.292;2022-09-09T00:57:54;10.00;99.90
37844;DHT22;23930;57.632;18.292;2022-09-09T01:00:28;10.00;99.90
37844;DHT22;23930;57.632;18.292;2022-09-09T01:06:14;10.00;99.90
37844;DHT22;23930;57.632;18.292;2022-09-09T01:11:55;9.90;99.90
37844;DHT22;23930;57.632;18.292;2022-09-09T01:17:23;9.80;99.90
37844;DHT22;23930;57.632;18.292;2022-09-09T01:25:20;9.80;99.90
37844;DHT22;23930;57.632;18.292;2022-09-09T01:28:20;9.80;99.90
37844;DHT22;23930;57.632;18.292;2022-09-09T01:30:50;9.80;99.90
37844;DHT22;23930;57.632;18.292;2022-09-09T01:33:21;9.70;99.90
37844;DHT22;23930;57.632;18.292;2022-09-09T01:36:00;9.70;99.90
37844;DHT22;23930;57.632;18.292;2022-09-09T01:38:36;9.70;99.90
37844;DHT22;23930;57.632;18.292;2022-09-09T01:41:03;9.70;99.90
37844;DHT22;23930;57.632;18.292;2022-09-09T01:43:42;9.70;99.90
37844;DHT22;23930;57.632;18.292;2022-09-09T01:46:09;9.70;99.90
37844;DHT22;23930;57.632;18.292;2022-09-09T01:48:39;9.70;99.90
37844;DHT22;23930;57.632;18.292;2022-09-09T01:51:09;9.70;99.90
37844;DHT22;23930;57.632;18.292;2022-09-09T01:53:39;9.70;99.90
37844;DHT22;23930;57.632;18.292;2022-09-09T02:06:57;9.70;99.90
37844;DHT22;23930;57.632;18.292;2022-09-09T02:09:30;9.70;99.90
37844;DHT22;23930;57.632;18.292;2022-09-09T02:12:09;9.70;99.90
37844;DHT22;23930;57.632;18.292;2022-09-09T02:14:52;9.70;99.90
37844;DHT22;23930;57.632;18.292;2022-09-09T02:17:31;9.70;99.90
37844;DHT22;23930;57.632;18.292;2022-09-09T02:20:12;9.70;99.90
37844;DHT22;23930;57.632;18.292;2022-09-09T02:22:49;9.70;99.90
37844;DHT22;23930;57.632;18.292;2022-09-09T02:25:21;9.70;99.90
37844;DHT22;23930;57.632;18.292;2022-09-09T02:27:50;9.70;99.90
37844;DHT22;23930;57.632;18.292;2022-09-09T02:30:20;9.70;99.90
37844;DHT22;23930;57.632;18.292;2022-09-09T02:32:54;9.80;99.90
37844;DHT22;23930;57.632;18.292;2022-09-09T02:35:43;9.80;99.90
37844;DHT22;23930;57.632;18.292;2022-09-09T02:38:13;9.80;99.90
37844;DHT22;23930;57.632;18.292;2022-09-09T02:40:52;9.80;99.90
37844;DHT22;23930;57.632;18.292;2022-09-09T02:43:20;9.80;99.90
37844;DHT22;23930;57.632;18.292;2022-09-09T02:46:03;9.80;99.90
37844;DHT22;23930;57.632;18.292;2022-09-09T02:54:33;9.80;99.90
37844;DHT22;23930;57.632;18.292;2022-09-09T02:57:10;9.80;99.90
37844;DHT22;23930;57.632;18.292;2022-09-09T02:59:40;9.80;99.90
37844;DHT22;23930;57.632;18.292;2022-09-09T03:02:08;9.80;99.90
37844;DHT22;23930;57.632;18.292;2022-09-09T03:04:38;9.90;99.90
37844;DHT22;23930;57.632;18.292;2022-09-09T03:07:06;9.90;99.90
37844;DHT22;23930;57.632;18.292;2022-09-09T03:09:33;9.90;99.90
37844;DHT22;23930;57.632;18.292;2022-09-09T03:12:00;9.90;99.90
37844;DHT22;23930;57.632;18.292;2022-09-09T03:14:28;9.90;99.90
37844;DHT22;23930;57.632;18.292;2022-09-09T03:16:55;9.90;99.90
37844;DHT22;23930;57.632;18.292;2022-09-09T03:19:23;9.90;99.90
37844;DHT22;23930;57.632;18.292;2022-09-09T03:21:51;10.00;99.90
37844;DHT22;23930;57.632;18.292;2022-09-09T03:24:18;10.00;99.90
37844;DHT22;23930;57.632;18.292;2022-09-09T03:26:45;10.00;99.90
37844;DHT22;23930;57.632;18.292;2022-09-09T03:29:15;10.00;99.90
37844;DHT22;23930;57.632;18.292;2022-09-09T03:31:43;10.00;99.90
37844;DHT22;23930;57.632;18.292;2022-09-09T03:34:11;10.00;99.90
37844;DHT22;23930;57.632;18.292;2022-09-09T03:36:38;10.00;99.90
37844;DHT22;23930;57.632;18.292;2022-09-09T03:39:05;10.00;99.90
37844;DHT22;23930;57.632;18.292;2022-09-09T03:41:32;10.00;99.90
37844;DHT22;23930;57.632;18.292;2022-09-09T03:44:00;10.00;99.90
37844;DHT22;23930;57.632;18.292;2022-09-09T03:46:32;10.00;99.90
37844;DHT22;23930;57.632;18.292;2022-09-09T03:48:59;10.00;99.90
37844;DHT22;23930;57.632;18.292;2022-09-09T03:51:26;10.00;99.90
37844;DHT22;23930;57.632;18.292;2022-09-09T03:53:53;10.00;99.90
37844;DHT22;23930;57.632;18.292;2022-09-09T03:56:22;10.00;99.90
37844;DHT22;23930;57.632;18.292;2022-09-09T03:58:49;10.10;99.90
37844;DHT22;23930;57.632;18.292;2022-09-09T04:01:16;10.10;99.90
37844;DHT22;23930;57.632;18.292;2022-09-09T04:03:45;10.10;99.90
37844;DHT22;23930;57.632;18.292;2022-09-09T04:06:14;10.20;99.90
37844;DHT22;23930;57.632;18.292;2022-09-09T04:08:44;10.10;99.90
37844;DHT22;23930;57.632;18.292;2022-09-09T04:11:12;10.10;99.90
37844;DHT22;23930;57.632;18.292;2022-09-09T04:13:39;10.10;99.90
37844;DHT22;23930;57.632;18.292;2022-09-09T04:16:11;10.10;99.90
37844;DHT22;23930;57.632;18.292;2022-09-09T04:18:40;10.10;99.90
37844;DHT22;23930;57.632;18.292;2022-09-09T04:21:09;10.10;99.90
37844;DHT22;23930;57.632;18.292;2022-09-09T04:23:36;10.20;99.90
37844;DHT22;23930;57.632;18.292;2022-09-09T04:26:05;10.20;99.90
37844;DHT22;23930;57.632;18.292;2022-09-09T04:28:35;10.20;99.90
37844;DHT22;23930;57.632;18.292;2022-09-09T04:31:09;10.30;99.90
37844;DHT22;23930;57.632;18.292;2022-09-09T04:33:38;10.20;99.90
37844;DHT22;23930;57.632;18.292;2022-09-09T04:36:07;10.20;99.90
37844;DHT22;23930;57.632;18.292;2022-09-09T04:38:35;10.30;99.90
37844;DHT22;23930;57.632;18.292;2022-09-09T04:41:04;10.30;99.90
37844;DHT22;23930;57.632;18.292;2022-09-09T04:43:33;10.40;99.90
37844;DHT22;23930;57.632;18.292;2022-09-09T04:46:02;10.40;99.90
37844;DHT22;23930;57.632;18.292;2022-09-09T04:48:30;10.50;99.90
37844;DHT22;23930;57.632;18.292;2022-09-09T04:51:04;10.50;99.90
37844;DHT22;23930;57.632;18.292;2022-09-09T04:53:33;10.50;99.90
37844;DHT22;23930;57.632;18.292;2022-09-09T04:58:36;10.70;99.90
37844;DHT22;23930;57.632;18.292;2022-09-09T05:01:23;10.70;99.90
37844;DHT22;23930;57.632;18.292;2022-09-09T05:03:53;10.70;99.90
37844;DHT22;23930;57.632;18.292;2022-09-09T05:06:22;10.80;99.90
37844;DHT22;23930;57.632;18.292;2022-09-09T05:08:53;10.90;99.90
37844;DHT22;23930;57.632;18.292;2022-09-09T05:11:29;10.90;99.90
37844;DHT22;23930;57.632;18.292;2022-09-09T05:14:00;10.90;99.90
37844;DHT22;23930;57.632;18.292;2022-09-09T05:16:29;11.00;99.90
37844;DHT22;23930;57.632;18.292;2022-09-09T05:18:57;11.10;99.90
37844;DHT22;23930;57.632;18.292;2022-09-09T05:21:25;11.10;99.90
37844;DHT22;23930;57.632;18.292;2022-09-09T05:23:53;11.20;99.90
37844;DHT22;23930;57.632;18.292;2022-09-09T05:26:21;11.30;99.90
37844;DHT22;23930;57.632;18.292;2022-09-09T05:28:51;11.40;99.90
37844;DHT22;23930;57.632;18.292;2022-09-09T05:31:19;11.40;99.90
37844;DHT22;23930;57.632;18.292;2022-09-09T05:33:49;11.50;99.90
37844;DHT22;23930;57.632;18.292;2022-09-09T05:36:18;11.60;99.90
37844;DHT22;23930;57.632;18.292;2022-09-09T05:38:48;11.60;99.90
37844;DHT22;23930;57.632;18.292;2022-09-09T05:41:16;11.60;99.90
37844;DHT22;23930;57.632;18.292;2022-09-09T05:43:45;11.80;99.90
37844;DHT22;23930;57.632;18.292;2022-09-09T05:46:21;11.80;99.90
37844;DHT22;23930;57.632;18.292;2022-09-09T05:48:51;11.90;99.90
37844;DHT22;23930;57.632;18.292;2022-09-09T05:51:23;12.00;99.90
37844;DHT22;23930;57.632;18.292;2022-09-09T05:53:51;12.00;99.90
37844;DHT22;23930;57.632;18.292;2022-09-09T05:56:20;12.20;99.90
37844;DHT22;23930;57.632;18.292;2022-09-09T05:58:52;12.30;99.90
37844;DHT22;23930;57.632;18.292;2022-09-09T06:01:32;12.30;99.90
37844;DHT22;23930;57.632;18.292;2022-09-09T06:04:01;12.40;99.90
37844;DHT22;23930;57.632;18.292;2022-09-09T06:06:34;12.50;99.90
37844;DHT22;23930;57.632;18.292;2022-09-09T06:09:09;12.60;99.90
37844;DHT22;23930;57.632;18.292;2022-09-09T06:11:40;12.70;99.90
37844;DHT22;23930;57.632;18.292;2022-09-09T06:14:08;12.70;99.90
37844;DHT22;23930;57.632;18.292;2022-09-09T06:16:36;12.80;99.90
37844;DHT22;23930;57.632;18.292;2022-09-09T06:19:09;12.80;99.90
37844;DHT22;23930;57.632;18.292;2022-09-09T06:21:39;12.90;99.90
37844;DHT22;23930;57.632;18.292;2022-09-09T06:24:08;13.00;99.90
37844;DHT22;23930;57.632;18.292;2022-09-09T06:26:37;13.00;99.90
37844;DHT22;23930;57.632;18.292;2022-09-09T06:29:09;13.10;99.90
37844;DHT22;23930;57.632;18.292;2022-09-09T06:31:37;13.10;99.90
37844;DHT22;23930;57.632;18.292;2022-09-09T06:34:17;13.20;99.90
37844;DHT22;23930;57.632;18.292;2022-09-09T06:36:48;13.30;99.90
37844;DHT22;23930;57.632;18.292;2022-09-09T06:39:16;13.30;99.90
37844;DHT22;23930;57.632;18.292;2022-09-09T06:41:44;13.40;99.90
37844;DHT22;23930;57.632;18.292;2022-09-09T06:44:33;13.50;99.90
37844;DHT22;23930;57.632;18.292;2022-09-09T06:47:02;13.60;99.90
37844;DHT22;23930;57.632;18.292;2022-09-09T06:49:30;13.60;99.90
37844;DHT22;23930;57.632;18.292;2022-09-09T06:51:58;13.70;99.90
37844;DHT22;23930;57.632;18.292;2022-09-09T06:54:26;13.70;99.90
37844;DHT22;23930;57.632;18.292;2022-09-09T06:56:53;13.80;99.90
37844;DHT22;23930;57.632;18.292;2022-09-09T06:59:22;13.80;99.90
37844;DHT22;23930;57.632;18.292;2022-09-09T07:01:52;13.90;99.90
37844;DHT22;23930;57.632;18.292;2022-09-09T07:04:22;13.90;99.90
37844;DHT22;23930;57.632;18.292;2022-09-09T07:06:49;13.90;99.90
37844;DHT22;23930;57.632;18.292;2022-09-09T07:09:23;14.00;99.90
37844;DHT22;23930;57.632;18.292;2022-09-09T07:11:52;14.00;99.90
37844;DHT22;23930;57.632;18.292;2022-09-09T07:14:21;14.10;99.90
37844;DHT22;23930;57.632;18.292;2022-09-09T07:16:58;14.20;99.90
37844;DHT22;23930;57.632;18.292;2022-09-09T07:19:32;14.20;99.90
37844;DHT22;23930;57.632;18.292;2022-09-09T07:22:00;14.30;99.90
37844;DHT22;23930;57.632;18.292;2022-09-09T07:24:30;14.40;99.90
37844;DHT22;23930;57.632;18.292;2022-09-09T07:26:58;14.40;99.90
37844;DHT22;23930;57.632;18.292;2022-09-09T07:29:26;14.50;99.90
37844;DHT22;23930;57.632;18.292;2022-09-09T07:31:53;14.50;99.90
37844;DHT22;23930;57.632;18.292;2022-09-09T07:34:25;14.50;99.90
37844;DHT22;23930;57.632;18.292;2022-09-09T07:36:52;14.60;99.90
37844;DHT22;23930;57.632;18.292;2022-09-09T07:39:19;14.60;99.90
37844;DHT22;23930;57.632;18.292;2022-09-09T07:41:50;14.70;99.90
37844;DHT22;23930;57.632;18.292;2022-09-09T07:44:23;14.70;99.90
37844;DHT22;23930;57.632;18.292;2022-09-09T07:46:58;14.70;99.90
37844;DHT22;23930;57.632;18.292;2022-09-09T07:49:32;14.70;99.90
37844;DHT22;23930;57.632;18.292;2022-09-09T07:52:00;14.80;99.90
37844;DHT22;23930;57.632;18.292;2022-09-09T07:54:28;14.90;99.90
37844;DHT22;23930;57.632;18.292;2022-09-09T07:56:56;14.90;99.90
37844;DHT22;23930;57.632;18.292;2022-09-09T07:59:26;15.00;99.90
37844;DHT22;23930;57.632;18.292;2022-09-09T08:01:55;15.00;99.90
37844;DHT22;23930;57.632;18.292;2022-09-09T08:04:27;15.10;99.90
37844;DHT22;23930;57.632;18.292;2022-09-09T08:06:59;15.10;99.90
37844;DHT22;23930;57.632;18.292;2022-09-09T08:09:29;15.10;99.90
37844;DHT22;23930;57.632;18.292;2022-09-09T08:12:15;15.20;99.90
37844;DHT22;23930;57.632;18.292;2022-09-09T08:14:42;15.20;99.90
37844;DHT22;23930;57.632;18.292;2022-09-09T08:17:09;15.20;99.90
37844;DHT22;23930;57.632;18.292;2022-09-09T08:19:37;15.30;99.90
37844;DHT22;23930;57.632;18.292;2022-09-09T08:22:09;15.30;99.90
37844;DHT22;23930;57.632;18.292;2022-09-09T08:24:38;15.30;99.90
37844;DHT22;23930;57.632;18.292;2022-09-09T08:27:06;15.30;99.90
37844;DHT22;23930;57.632;18.292;2022-09-09T08:29:33;15.40;99.90
37844;DHT22;23930;57.632;18.292;2022-09-09T08:32:01;15.40;99.90
37844;DHT22;23930;57.632;18.292;2022-09-09T08:34:29;15.40;99.90
37844;DHT22;23930;57.632;18.292;2022-09-09T08:37:01;15.40;99.90
37844;DHT22;23930;57.632;18.292;2022-09-09T08:39:34;15.50;99.90
37844;DHT22;23930;57.632;18.292;2022-09-09T08:53:08;15.90;99.90
37844;DHT22;23930;57.632;18.292;2022-09-09T08:58:15;16.10;99.90
37844;DHT22;23930;57.632;18.292;2022-09-09T09:09:01;16.30;99.90
37844;DHT22;23930;57.632;18.292;2022-09-09T09:11:52;16.40;99.90
37844;DHT22;23930;57.632;18.292;2022-09-09T09:14:22;16.40;99.90
37844;DHT22;23930;57.632;18.292;2022-09-09T09:17:04;16.60;99.90
37844;DHT22;23930;57.632;18.292;2022-09-09T09:19:34;16.70;99.90
37844;DHT22;23930;57.632;18.292;2022-09-09T09:30:10;16.80;99.90
37844;DHT22;23930;57.632;18.292;2022-09-09T09:33:05;16.80;99.90
37844;DHT22;23930;57.632;18.292;2022-09-09T09:35:35;16.90;99.90
37844;DHT22;23930;57.632;18.292;2022-09-09T09:38:19;16.90;99.90
37844;DHT22;23930;57.632;18.292;2022-09-09T09:41:09;16.90;99.90
37844;DHT22;23930;57.632;18.292;2022-09-09T09:43:40;17.00;99.90
37844;DHT22;23930;57.632;18.292;2022-09-09T09:46:21;17.00;99.90
37844;DHT22;23930;57.632;18.292;2022-09-09T09:48:59;17.00;99.90
37844;DHT22;23930;57.632;18.292;2022-09-09T09:51:30;17.10;99.90
37844;DHT22;23930;57.632;18.292;2022-09-09T09:56:33;17.10;99.90
37844;DHT22;23930;57.632;18.292;2022-09-09T09:59:02;17.20;99.90
37844;DHT22;23930;57.632;18.292;2022-09-09T10:01:43;17.20;99.90
37844;DHT22;23930;57.632;18.292;2022-09-09T10:04:22;17.30;99.90
37844;DHT22;23930;57.632;18.292;2022-09-09T10:06:55;17.30;99.90
37844;DHT22;23930;57.632;18.292;2022-09-09T10:15:19;17.50;99.90
37844;DHT22;23930;57.632;18.292;2022-09-09T10:23:56;17.70;99.90
37844;DHT22;23930;57.632;18.292;2022-09-09T10:29:41;17.70;99.90
37844;DHT22;23930;57.632;18.292;2022-09-09T10:35:14;17.90;99.90
37844;DHT22;23930;57.632;18.292;2022-09-09T10:43:13;18.10;99.90
37844;DHT22;23930;57.632;18.292;2022-09-09T10:52:00;18.30;99.90
37844;DHT22;23930;57.632;18.292;2022-09-09T10:57:27;18.30;99.90
37844;DHT22;23930;57.632;18.292;2022-09-09T10:59:59;18.30;99.90
37844;DHT22;23930;57.632;18.292;2022-09-09T11:02:33;18.30;99.90
37844;DHT22;23930;57.632;18.292;2022-09-09T11:05:08;18.30;99.90
37844;DHT22;23930;57.632;18.292;2022-09-09T11:07:40;18.30;99.90
37844;DHT22;23930;57.632;18.292;2022-09-09T11:12:54;18.40;99.90
37844;DHT22;23930;57.632;18.292;2022-09-09T11:15:38;18.40;99.90
37844;DHT22;23930;57.632;18.292;2022-09-09T11:18:13;18.50;99.90
37844;DHT22;23930;57.632;18.292;2022-09-09T11:20:41;18.60;99.90
37844;DHT22;23930;57.632;18.292;2022-09-09T11:23:24;18.60;99.90
37844;DHT22;23930;57.632;18.292;2022-09-09T11:25:55;18.60;99.90
37844;DHT22;23930;57.632;18.292;2022-09-09T11:28:41;18.60;99.90
37844;DHT22;23930;57.632;18.292;2022-09-09T11:31:37;18.70;99.90
37844;DHT22;23930;57.632;18.292;2022-09-09T11:37:23;18.70;99.90
37844;DHT22;23930;57.632;18.292;2022-09-09T11:42:22;18.70;99.90
37844;DHT22;23930;57.632;18.292;2022-09-09T11:44:50;18.70;99.90
37844;DHT22;23930;57.632;18.292;2022-09-09T11:47:21;18.70;99.90
37844;DHT22;23930;57.632;18.292;2022-09-09T11:49:51;18.80;99.90
37844;DHT22;23930;57.632;18.292;2022-09-09T11:52:40;18.70;99.90
37844;DHT22;23930;57.632;18.292;2022-09-09T11:55:12;18.60;99.90
37844;DHT22;23930;57.632;18.292;2022-09-09T11:58:01;18.60;99.90
37844;DHT22;23930;57.632;18.292;2022-09-09T12:06:08;18.90;99.90
37844;DHT22;23930;57.632;18.292;2022-09-09T12:08:36;18.90;99.90
37844;DHT22;23930;57.632;18.292;2022-09-09T12:11:03;19.00;99.90
37844;DHT22;23930;57.632;18.292;2022-09-09T12:13:31;19.10;99.90
37844;DHT22;23930;57.632;18.292;2022-09-09T12:15:59;19.00;99.90
37844;DHT22;23930;57.632;18.292;2022-09-09T12:18:36;18.90;99.90
37844;DHT22;23930;57.632;18.292;2022-09-09T12:24:14;19.00;99.90
37844;DHT22;23930;57.632;18.292;2022-09-09T12:26:51;19.00;99.90
37844;DHT22;23930;57.632;18.292;2022-09-09T12:32:29;18.90;99.90
37844;DHT22;23930;57.632;18.292;2022-09-09T12:35:03;18.90;99.90
37844;DHT22;23930;57.632;18.292;2022-09-09T12:37:51;19.10;99.90
37844;DHT22;23930;57.632;18.292;2022-09-09T12:40:24;19.20;99.90
37844;DHT22;23930;57.632;18.292;2022-09-09T12:42:52;19.20;99.90
37844;DHT22;23930;57.632;18.292;2022-09-09T12:45:20;19.20;99.90
37844;DHT22;23930;57.632;18.292;2022-09-09T12:47:54;19.20;99.90
37844;DHT22;23930;57.632;18.292;2022-09-09T12:50:24;19.20;99.90
37844;DHT22;23930;57.632;18.292;2022-09-09T12:52:56;19.30;99.90
37844;DHT22;23930;57.632;18.292;2022-09-09T12:55:28;19.40;99.90
37844;DHT22;23930;57.632;18.292;2022-09-09T12:57:57;19.30;99.90
37844;DHT22;23930;57.632;18.292;2022-09-09T13:00:26;19.40;99.90
37844;DHT22;23930;57.632;18.292;2022-09-09T13:02:57;19.50;99.90
37844;DHT22;23930;57.632;18.292;2022-09-09T13:05:28;19.50;99.90
37844;DHT22;23930;57.632;18.292;2022-09-09T13:08:06;19.50;99.90
37844;DHT22;23930;57.632;18.292;2022-09-09T13:10:50;19.50;99.90
37844;DHT22;23930;57.632;18.292;2022-09-09T13:13:30;19.50;99.90
37844;DHT22;23930;57.632;18.292;2022-09-09T13:16:01;19.40;99.90
37844;DHT22;23930;57.632;18.292;2022-09-09T13:18:30;19.40;99.90
37844;DHT22;23930;57.632;18.292;2022-09-09T13:20:58;19.30;99.90
37844;DHT22;23930;57.632;18.292;2022-09-09T13:23:33;19.40;99.90
37844;DHT22;23930;57.632;18.292;2022-09-09T13:28:31;19.50;99.90
37844;DHT22;23930;57.632;18.292;2022-09-09T13:31:02;19.60;99.90
37844;DHT22;23930;57.632;18.292;2022-09-09T13:33:35;19.50;99.90
37844;DHT22;23930;57.632;18.292;2022-09-09T13:36:05;19.50;99.90
37844;DHT22;23930;57.632;18.292;2022-09-09T13:38:39;19.50;99.90
37844;DHT22;23930;57.632;18.292;2022-09-09T13:41:09;19.40;99.90
37844;DHT22;23930;57.632;18.292;2022-09-09T13:43:42;19.40;99.90
37844;DHT22;23930;57.632;18.292;2022-09-09T13:51:36;19.10;99.90
37844;DHT22;23930;57.632;18.292;2022-09-09T13:54:09;19.10;99.90
37844;DHT22;23930;57.632;18.292;2022-09-09T13:56:38;19.30;99.90
37844;DHT22;23930;57.632;18.292;2022-09-09T13:59:09;19.10;99.90
37844;DHT22;23930;57.632;18.292;2022-09-09T14:01:37;18.80;99.90
37844;DHT22;23930;57.632;18.292;2022-09-09T14:04:04;18.80;99.90
37844;DHT22;23930;57.632;18.292;2022-09-09T14:06:35;18.80;99.90
37844;DHT22;23930;57.632;18.292;2022-09-09T14:09:07;18.70;99.90
37844;DHT22;23930;57.632;18.292;2022-09-09T14:11:34;18.60;99.90
37844;DHT22;23930;57.632;18.292;2022-09-09T14:14:01;18.50;99.90
37844;DHT22;23930;57.632;18.292;2022-09-09T14:16:28;18.50;99.90
37844;DHT22;23930;57.632;18.292;2022-09-09T14:18:56;18.50;99.90
37844;DHT22;23930;57.632;18.292;2022-09-09T14:21:24;18.50;99.90
37844;DHT22;23930;57.632;18.292;2022-09-09T14:23:51;18.50;99.90
37844;DHT22;23930;57.632;18.292;2022-09-09T14:26:23;18.50;99.90
37844;DHT22;23930;57.632;18.292;2022-09-09T14:28:50;18.50;99.90
37844;DHT22;23930;57.632;18.292;2022-09-09T14:31:24;18.50;99.90
37844;DHT22;23930;57.632;18.292;2022-09-09T14:33:51;18.70;99.90
37844;DHT22;23930;57.632;18.292;2022-09-09T14:36:19;18.90;99.90
37844;DHT22;23930;57.632;18.292;2022-09-09T14:38:46;19.00;99.90
37844;DHT22;23930;57.632;18.292;2022-09-09T14:41:15;19.10;99.90
37844;DHT22;23930;57.632;18.292;2022-09-09T14:43:46;19.30;99.90
37844;DHT22;23930;57.632;18.292;2022-09-09T14:46:15;19.30;99.90
37844;DHT22;23930;57.632;18.292;2022-09-09T14:48:43;19.20;99.90
37844;DHT22;23930;57.632;18.292;2022-09-09T14:51:16;19.00;99.90
37844;DHT22;23930;57.632;18.292;2022-09-09T14:53:44;18.90;99.90
37844;DHT22;23930;57.632;18.292;2022-09-09T14:56:15;19.10;99.90
37844;DHT22;23930;57.632;18.292;2022-09-09T14:58:42;19.00;99.90
37844;DHT22;23930;57.632;18.292;2022-09-09T15:01:18;18.90;99.90
37844;DHT22;23930;57.632;18.292;2022-09-09T15:03:53;19.00;99.90
37844;DHT22;23930;57.632;18.292;2022-09-09T15:06:23;19.20;99.90
37844;DHT22;23930;57.632;18.292;2022-09-09T15:08:52;19.30;99.80
37844;DHT22;23930;57.632;18.292;2022-09-09T15:11:20;19.30;99.90
37844;DHT22;23930;57.632;18.292;2022-09-09T15:13:47;19.10;99.90
37844;DHT22;23930;57.632;18.292;2022-09-09T15:16:19;18.90;99.90
37844;DHT22;23930;57.632;18.292;2022-09-09T15:18:49;18.60;99.90
37844;DHT22;23930;57.632;18.292;2022-09-09T15:21:17;18.20;99.90
37844;DHT22;23930;57.632;18.292;2022-09-09T15:23:46;17.90;99.90
37844;DHT22;23930;57.632;18.292;2022-09-09T15:26:14;17.70;99.90
37844;DHT22;23930;57.632;18.292;2022-09-09T15:28:42;17.50;99.90
37844;DHT22;23930;57.632;18.292;2022-09-09T15:31:16;17.50;99.90
37844;DHT22;23930;57.632;18.292;2022-09-09T15:33:51;17.40;99.90
37844;DHT22;23930;57.632;18.292;2022-09-09T15:36:21;17.30;99.90
37844;DHT22;23930;57.632;18.292;2022-09-09T15:38:49;17.10;99.90
37844;DHT22;23930;57.632;18.292;2022-09-09T15:41:17;17.00;99.90
37844;DHT22;23930;57.632;18.292;2022-09-09T15:43:46;16.80;99.90
37844;DHT22;23930;57.632;18.292;2022-09-09T15:48:44;16.60;99.90
37844;DHT22;23930;57.632;18.292;2022-09-09T15:51:14;16.50;99.90
37844;DHT22;23930;57.632;18.292;2022-09-09T15:54:01;16.30;99.90
37844;DHT22;23930;57.632;18.292;2022-09-09T15:56:29;16.30;99.90
37844;DHT22;23930;57.632;18.292;2022-09-09T15:59:03;16.30;99.90
37844;DHT22;23930;57.632;18.292;2022-09-09T16:01:30;16.20;99.90
37844;DHT22;23930;57.632;18.292;2022-09-09T16:03:59;16.10;99.90
37844;DHT22;23930;57.632;18.292;2022-09-09T16:06:27;16.10;99.90
37844;DHT22;23930;57.632;18.292;2022-09-09T16:08:56;16.00;99.90
37844;DHT22;23930;57.632;18.292;2022-09-09T16:11:26;16.00;99.90
37844;DHT22;23930;57.632;18.292;2022-09-09T16:13:55;15.90;99.90
37844;DHT22;23930;57.632;18.292;2022-09-09T16:16:26;15.80;99.90
37844;DHT22;23930;57.632;18.292;2022-09-09T16:18:56;15.70;99.90
37844;DHT22;23930;57.632;18.292;2022-09-09T16:21:26;15.60;99.90
37844;DHT22;23930;57.632;18.292;2022-09-09T16:23:57;15.50;99.90
37844;DHT22;23930;57.632;18.292;2022-09-09T16:26:27;15.50;99.90
37844;DHT22;23930;57.632;18.292;2022-09-09T16:28:54;15.40;99.90
37844;DHT22;23930;57.632;18.292;2022-09-09T16:31:23;15.40;99.90
37844;DHT22;23930;57.632;18.292;2022-09-09T16:33:50;15.40;99.90
37844;DHT22;23930;57.632;18.292;2022-09-09T16:36:20;15.30;99.90
37844;DHT22;23930;57.632;18.292;2022-09-09T16:38:47;15.30;99.90
37844;DHT22;23930;57.632;18.292;2022-09-09T16:41:14;15.20;99.90
37844;DHT22;23930;57.632;18.292;2022-09-09T16:43:41;15.20;99.90
37844;DHT22;23930;57.632;18.292;2022-09-09T16:46:14;15.10;99.90
37844;DHT22;23930;57.632;18.292;2022-09-09T16:48:43;15.00;99.90
37844;DHT22;23930;57.632;18.292;2022-09-09T16:51:20;15.00;99.90
37844;DHT22;23930;57.632;18.292;2022-09-09T16:53:47;15.00;99.90
37844;DHT22;23930;57.632;18.292;2022-09-09T16:56:17;14.90;99.90
37844;DHT22;23930;57.632;18.292;2022-09-09T16:58:53;14.90;99.90
37844;DHT22;23930;57.632;18.292;2022-09-09T17:01:25;14.80;99.90
37844;DHT22;23930;57.632;18.292;2022-09-09T17:03:57;14.80;99.90
37844;DHT22;23930;57.632;18.292;2022-09-09T17:06:28;14.70;99.90
37844;DHT22;23930;57.632;18.292;2022-09-09T17:09:01;14.70;99.90
37844;DHT22;23930;57.632;18.292;2022-09-09T17:11:29;14.60;99.90
37844;DHT22;23930;57.632;18.292;2022-09-09T17:13:57;14.50;99.90
37844;DHT22;23930;57.632;18.292;2022-09-09T17:16:27;14.40;99.90
37844;DHT22;23930;57.632;18.292;2022-09-09T17:18:55;14.40;99.90
37844;DHT22;23930;57.632;18.292;2022-09-09T17:21:25;14.30;99.90
37844;DHT22;23930;57.632;18.292;2022-09-09T17:23:52;14.30;99.90
37844;DHT22;23930;57.632;18.292;2022-09-09T17:26:22;14.20;99.90
37844;DHT22;23930;57.632;18.292;2022-09-09T17:28:49;14.20;99.90
37844;DHT22;23930;57.632;18.292;2022-09-09T17:31:17;14.10;99.90
37844;DHT22;23930;57.632;18.292;2022-09-09T17:33:47;14.10;99.90
37844;DHT22;23930;57.632;18.292;2022-09-09T17:36:17;14.00;99.90
37844;DHT22;23930;57.632;18.292;2022-09-09T17:38:45;13.90;99.90
37844;DHT22;23930;57.632;18.292;2022-09-09T17:41:25;13.90;99.90
37844;DHT22;23930;57.632;18.292;2022-09-09T17:43:52;13.90;99.90
37844;DHT22;23930;57.632;18.292;2022-09-09T17:46:36;13.80;99.90
37844;DHT22;23930;57.632;18.292;2022-09-09T17:49:06;13.80;99.90
37844;DHT22;23930;57.632;18.292;2022-09-09T17:51:34;13.80;99.90
37844;DHT22;23930;57.632;18.292;2022-09-09T17:54:08;13.80;99.90
37844;DHT22;23930;57.632;18.292;2022-09-09T17:56:37;13.80;99.90
37844;DHT22;23930;57.632;18.292;2022-09-09T17:59:05;13.80;99.90
37844;DHT22;23930;57.632;18.292;2022-09-09T18:01:34;13.80;99.90
37844;DHT22;23930;57.632;18.292;2022-09-09T18:04:03;13.80;99.90
37844;DHT22;23930;57.632;18.292;2022-09-09T18:06:38;13.80;99.90
37844;DHT22;23930;57.632;18.292;2022-09-09T18:09:09;13.80;99.90
37844;DHT22;23930;57.632;18.292;2022-09-09T18:11:39;13.70;99.90
37844;DHT22;23930;57.632;18.292;2022-09-09T18:14:11;13.70;99.90